Time;durP1;ratioP1;P1;durP2;ratioP2;P2;SDS_P1;SDS_P2;PMS_P1;PMS_P2;Temp;Humidity;BMP_temperature;BMP_pressure;BME280_temperature;BME280_humidity;BME280_pressure;Samples;Min_cycle;Max_cycle;Signal;HPM_P1;HPM_P2
2022/04/23 00:01:42;;;;;;;5.47;2.73;;;;;;;9.21;85.51;94466.38;1795417;80;20987;-68
2022/04/23 00:04:13;;;;;;;2.73;1.70;;;;;;;9.16;86.04;94470.06;1795475;80;21051;-68
2022/04/23 00:06:40;;;;;;;4.47;2.30;;;;;;;9.15;85.90;94469.21;1795564;80;20981;-68
2022/04/23 00:09:07;;;;;;;2.93;1.83;;;;;;;9.23;85.91;94467.20;1795560;80;20987;-68
2022/04/23 00:11:34;;;;;;;2.30;1.90;;;;;;;9.24;85.32;94464.10;1795254;80;21049;-69
2022/04/23 00:14:04;;;;;;;2.47;1.53;;;;;;;9.19;85.02;94463.39;1795471;80;20982;-68
2022/04/23 00:16:30;;;;;;;10.90;5.90;;;;;;;9.16;85.27;94464.80;1795448;80;21003;-68
2022/04/23 00:18:58;;;;;;;3.13;1.93;;;;;;;9.17;86.21;94466.09;1795560;80;20991;-69
2022/04/23 00:21:25;;;;;;;4.30;2.90;;;;;;;9.21;85.88;94460.26;1795147;80;21018;-68
2022/04/23 00:23:51;;;;;;;9.83;5.50;;;;;;;9.19;85.93;94459.44;1795297;80;21508;-68
2022/04/23 00:26:18;;;;;;;7.13;5.17;;;;;;;9.26;86.07;94472.81;1795564;80;21070;-68
2022/04/23 00:28:45;;;;;;;7.90;5.07;;;;;;;9.33;86.25;94480.08;1795490;80;20975;-68
2022/04/23 00:31:13;;;;;;;7.30;4.73;;;;;;;9.38;86.01;94480.80;1795142;80;21484;-68
2022/04/23 00:33:40;;;;;;;11.57;3.43;;;;;;;9.37;85.48;94480.37;1795533;80;21022;-68
2022/04/23 00:36:10;;;;;;;3.93;2.63;;;;;;;9.25;84.98;94471.11;1795630;80;20983;-68
2022/04/23 00:38:42;;;;;;;3.40;1.93;;;;;;;9.26;85.52;94471.04;1795473;80;21055;-67
2022/04/23 00:41:43;;;;;;;3.20;2.40;;;;;;;9.27;85.38;94471.89;1795224;80;20979;-68
2022/04/23 00:43:38;;;;;;;6.60;2.87;;;;;;;9.23;85.34;94467.66;1789684;80;21034;-68
2022/04/23 00:46:04;;;;;;;6.00;3.60;;;;;;;9.30;85.79;94467.87;1790288;80;21114;-68
2022/04/23 00:48:31;;;;;;;5.23;3.63;;;;;;;9.35;85.53;94463.33;1795410;80;20980;-68
2022/04/23 00:51:00;;;;;;;4.23;2.40;;;;;;;9.27;84.81;94459.63;1795381;80;21038;-68
2022/04/23 00:53:28;;;;;;;3.47;1.50;;;;;;;9.20;84.96;94466.44;1795449;80;20985;-68
2022/04/23 00:55:56;;;;;;;1.93;1.50;;;;;;;9.18;85.15;94459.05;1794956;80;21015;-68
2022/04/23 00:58:23;;;;;;;2.17;1.33;;;;;;;9.16;85.19;94456.91;1795582;80;21090;-68
2022/04/23 01:00:50;;;;;;;3.13;1.33;;;;;;;9.17;85.09;94458.63;1795243;80;21496;-68
2022/04/23 01:03:17;;;;;;;2.43;1.30;;;;;;;9.09;85.09;94455.77;1795012;80;21007;-68
2022/04/23 01:05:45;;;;;;;3.27;2.20;;;;;;;9.09;85.26;94461.03;1795545;80;21449;-68
2022/04/23 01:08:17;;;;;;;4.77;2.60;;;;;;;9.08;85.48;94463.27;1795439;80;21476;-68
2022/04/23 01:10:44;;;;;;;1.57;1.10;;;;;;;9.09;85.66;94468.92;1794973;80;21030;-68
2022/04/23 01:13:19;;;;;;;1.80;0.67;;;;;;;9.02;84.97;94467.42;1795469;80;21507;-68
2022/04/23 01:16:07;;;;;;;1.67;0.60;;;;;;;8.93;85.05;94461.11;1793719;80;20975;-68
2022/04/23 01:18:38;;;;;;;3.00;2.17;;;;;;;8.99;85.58;94467.95;1795509;80;21485;-68
2022/04/23 01:21:05;;;;;;;5.37;2.00;;;;;;;9.00;85.40;94454.76;1795513;80;21070;-68
2022/04/23 01:23:32;;;;;;;0.73;0.70;;;;;;;8.93;84.69;94460.25;1795230;80;20951;-68
2022/04/23 01:25:59;;;;;;;1.13;0.80;;;;;;;8.93;85.22;94457.16;1795171;80;21501;-68
2022/04/23 01:28:28;;;;;;;1.33;0.60;;;;;;;8.98;85.26;94457.88;1795293;80;21006;-68
2022/04/23 01:31:00;;;;;;;1.73;0.80;;;;;;;8.88;84.80;94453.81;1795577;80;20975;-68
2022/04/23 01:33:24;;;;;;;0.70;0.70;;;;;;;8.81;85.20;94450.49;1794268;80;21033;-68
2022/04/23 01:35:50;;;;;;;1.20;0.80;;;;;;;8.82;85.47;94454.87;1795495;80;20974;-68
2022/04/23 01:38:17;;;;;;;4.20;1.73;;;;;;;8.85;85.74;94456.08;1795287;80;21038;-68
2022/04/23 01:40:44;;;;;;;2.40;1.30;;;;;;;8.84;85.54;94452.17;1795281;80;21065;-69
2022/04/23 01:43:11;;;;;;;4.10;1.67;;;;;;;8.77;85.21;94448.88;1795318;80;21010;-69
2022/04/23 01:45:39;;;;;;;1.70;1.00;;;;;;;8.77;85.39;94451.94;1764166;80;20987;-68
2022/04/23 01:48:06;;;;;;;4.50;1.53;;;;;;;8.69;85.35;94446.05;1795359;80;21017;-68
2022/04/23 01:50:34;;;;;;;2.63;1.50;;;;;;;8.62;85.95;94454.14;1795354;80;21512;-68
2022/04/23 01:53:02;;;;;;;5.33;3.27;;;;;;;8.62;85.91;94451.51;1795371;80;21002;-68
2022/04/23 01:55:31;;;;;;;5.20;3.73;;;;;;;8.59;85.99;94448.98;1795410;80;21046;-68
2022/04/23 01:57:58;;;;;;;7.73;3.80;;;;;;;8.59;85.84;94455.98;1794469;80;21034;-68
2022/04/23 02:00:26;;;;;;;6.73;3.80;;;;;;;8.56;86.22;94462.19;1795353;80;21022;-68
2022/04/23 02:02:54;;;;;;;3.93;2.60;;;;;;;8.52;86.95;94464.52;1795892;80;20955;-68
2022/04/23 02:05:21;;;;;;;2.70;2.23;;;;;;;8.47;86.47;94462.90;1795146;80;21076;-68
2022/04/23 02:07:48;;;;;;;3.80;1.80;;;;;;;8.45;86.27;94461.65;1795346;80;21130;-68
2022/04/23 02:10:16;;;;;;;3.57;2.40;;;;;;;8.43;86.28;94455.11;1795112;80;21049;-68
2022/04/23 02:12:45;;;;;;;3.30;2.20;;;;;;;8.42;86.24;94460.43;1795498;80;20971;-68
2022/04/23 02:15:14;;;;;;;4.07;2.10;;;;;;;8.39;86.25;94456.52;1795582;80;21030;-68
2022/04/23 02:17:44;;;;;;;3.90;2.50;;;;;;;8.37;87.16;94457.03;1795625;80;20995;-68
2022/04/23 02:20:14;;;;;;;5.10;3.60;;;;;;;8.33;87.40;94464.59;1795452;80;21057;-68
2022/04/23 02:22:41;;;;;;;4.13;2.03;;;;;;;8.29;87.66;94466.45;1795517;80;20998;-68
2022/04/23 02:25:09;;;;;;;1.90;1.57;;;;;;;8.25;86.86;94464.80;1795637;80;21505;-68
2022/04/23 02:27:50;;;;;;;3.43;1.43;;;;;;;8.28;87.04;94463.86;1795375;80;21050;-68
2022/04/23 02:30:20;;;;;;;1.13;0.80;;;;;;;8.32;86.94;94468.98;1795498;80;21023;-68
2022/04/23 02:32:48;;;;;;;1.20;0.93;;;;;;;8.37;87.00;94471.03;1795374;80;20971;-68
2022/04/23 02:35:20;;;;;;;2.90;2.30;;;;;;;8.31;86.57;94469.02;1795622;80;21034;-68
2022/04/23 02:37:45;;;;;;;2.37;1.50;;;;;;;8.31;86.84;94477.76;1787938;80;21030;-68
2022/04/23 02:40:14;;;;;;;4.77;2.00;;;;;;;8.33;86.95;94479.89;1786778;80;21014;-68
2022/04/23 02:42:41;;;;;;;4.30;2.50;;;;;;;8.33;86.53;94486.92;1787128;80;21047;-68
2022/04/23 02:45:10;;;;;;;3.43;2.00;;;;;;;8.35;86.64;94489.92;1787377;80;21006;-68
2022/04/23 02:47:52;;;;;;;2.33;1.43;;;;;;;8.32;86.77;94481.27;1787026;80;21011;-68
2022/04/23 02:50:37;;;;;;;5.27;1.80;;;;;;;8.34;86.70;94488.64;1787194;80;21029;-68
2022/04/23 02:53:06;;;;;;;2.70;2.07;;;;;;;8.44;87.45;94475.68;1787339;80;21437;-68
2022/04/23 02:55:34;;;;;;;12.57;6.03;;;;;;;8.52;87.17;94479.44;1786581;80;21022;-68
2022/04/23 02:58:05;;;;;;;6.83;2.20;;;;;;;8.47;86.77;94489.19;1787251;80;21019;-68
2022/04/23 03:00:32;;;;;;;2.93;2.17;;;;;;;8.49;87.09;94484.30;1786785;80;21022;-68
2022/04/23 03:02:59;;;;;;;7.30;3.90;;;;;;;8.54;86.75;94490.74;1787114;80;20991;-68
2022/04/23 03:05:27;;;;;;;3.43;1.50;;;;;;;8.48;86.20;94486.53;1787212;80;21485;-68
2022/04/23 03:07:53;;;;;;;3.00;1.73;;;;;;;8.46;86.23;94488.33;1786836;80;21058;-68
2022/04/23 03:10:20;;;;;;;2.33;1.70;;;;;;;8.48;86.56;94493.10;1787250;80;20963;-68
2022/04/23 03:12:47;;;;;;;4.93;2.70;;;;;;;8.53;86.88;94487.26;1786848;80;21022;-68
2022/04/23 03:15:16;;;;;;;3.43;2.00;;;;;;;8.53;86.35;94491.66;1786737;80;21075;-68
2022/04/23 03:17:45;;;;;;;3.73;1.43;;;;;;;8.48;86.00;94497.05;1787342;80;20971;-68
2022/04/23 03:20:13;;;;;;;5.50;1.83;;;;;;;8.53;86.63;94496.92;1787294;80;21536;-68
2022/04/23 03:22:41;;;;;;;7.40;4.00;;;;;;;8.51;86.06;94502.20;1787360;80;21054;-68
2022/04/23 03:25:11;;;;;;;5.33;2.30;;;;;;;8.42;85.94;94496.77;1786986;80;20964;-68
2022/04/23 03:27:37;;;;;;;6.37;2.30;;;;;;;8.41;85.94;94502.91;1787129;80;21558;-68
2022/04/23 03:30:06;;;;;;;2.43;1.60;;;;;;;8.42;86.45;94505.11;1786846;80;21022;-68
2022/04/23 03:32:34;;;;;;;6.83;2.13;;;;;;;8.53;87.22;94507.44;1787151;80;21015;-68
2022/04/23 03:35:00;;;;;;;3.83;1.80;;;;;;;8.52;86.39;94507.04;1787097;80;21015;-67
2022/04/23 03:37:28;;;;;;;6.00;2.73;;;;;;;8.53;86.54;94508.30;1791402;80;21049;-68
2022/04/23 03:39:54;;;;;;;6.17;2.17;;;;;;;8.54;86.14;94515.72;1795371;80;20986;-68
2022/04/23 03:42:21;;;;;;;2.23;1.20;;;;;;;8.44;86.08;94510.73;1795191;80;21532;-68
2022/04/23 03:44:47;;;;;;;16.27;7.13;;;;;;;8.45;86.15;94509.82;1795439;80;21049;-68
2022/04/23 03:47:15;;;;;;;4.10;1.30;;;;;;;8.44;86.46;94508.54;1795237;80;21026;-68
2022/04/23 03:49:42;;;;;;;5.43;1.30;;;;;;;8.44;86.42;94510.73;1795324;80;21015;-68
2022/04/23 03:52:12;;;;;;;2.00;0.90;;;;;;;8.41;85.90;94517.83;1795416;80;20979;-68
2022/04/23 03:54:38;;;;;;;1.73;1.10;;;;;;;8.41;86.65;94516.52;1795471;80;21481;-68
2022/04/23 03:57:05;;;;;;;2.47;1.00;;;;;;;8.48;86.82;94515.91;1795428;80;21037;-68
2022/04/23 03:59:31;;;;;;;2.80;1.30;;;;;;;8.45;86.27;94512.91;1795305;80;20975;-68
2022/04/23 04:02:04;;;;;;;7.47;4.97;;;;;;;8.35;85.84;94510.95;1795581;80;21078;-68
2022/04/23 04:04:26;;;;;;;9.53;2.17;;;;;;;8.30;86.29;94513.30;1794698;80;21058;-68
2022/04/23 04:06:53;;;;;;;7.97;3.67;;;;;;;8.26;86.30;94508.56;1795884;80;20982;-68
2022/04/23 04:09:19;;;;;;;4.00;1.80;;;;;;;8.34;87.06;94513.18;1795619;80;21023;-68
2022/04/23 04:12:06;;;;;;;9.27;3.90;;;;;;;8.38;86.89;94516.58;1795208;80;21042;-68
2022/04/23 04:14:17;;;;;;;15.90;12.27;;;;;;;8.44;87.07;94516.42;1786275;80;21496;-68
2022/04/23 04:16:45;;;;;;;3.10;2.50;;;;;;;8.40;86.86;94514.80;1795586;80;20987;-68
2022/04/23 04:19:16;;;;;;;11.00;6.57;;;;;;;8.39;87.24;94513.95;1795208;80;20998;-68
2022/04/23 04:21:44;;;;;;;29.23;13.87;;;;;;;8.50;87.56;94511.47;1795450;80;21489;-68
2022/04/23 04:24:14;;;;;;;20.33;11.33;;;;;;;8.51;87.28;94513.19;1795621;80;21552;-68
2022/04/23 04:26:42;;;;;;;15.93;9.47;;;;;;;8.50;87.32;94516.73;1795440;80;20974;-68
2022/04/23 04:29:08;;;;;;;16.20;10.47;;;;;;;8.51;87.51;94521.92;1795527;80;20998;-68
2022/04/23 04:31:49;;;;;;;17.87;9.67;;;;;;;8.45;86.79;94521.65;1795625;80;20963;-68
2022/04/23 04:34:28;;;;;;;7.40;3.40;;;;;;;8.43;87.32;94519.97;1795030;80;20994;-68
2022/04/23 04:37:05;;;;;;;12.93;6.73;;;;;;;8.45;87.29;94515.53;1794099;80;21030;-69
2022/04/23 04:39:32;;;;;;;12.27;7.53;;;;;;;8.42;87.30;94516.95;1787124;80;21018;-69
2022/04/23 04:41:59;;;;;;;13.83;8.97;;;;;;;8.37;87.72;94514.86;1786972;80;21461;-68
2022/04/23 04:44:26;;;;;;;14.77;9.73;;;;;;;8.35;87.53;94518.83;1787129;80;21042;-68
2022/04/23 04:46:52;;;;;;;16.30;8.93;;;;;;;8.36;87.88;94518.38;1787180;80;21046;-68
2022/04/23 04:49:19;;;;;;;14.93;8.70;;;;;;;8.33;87.76;94518.47;1787177;80;20952;-68
2022/04/23 04:51:45;;;;;;;14.40;8.67;;;;;;;8.30;87.48;94519.41;1787179;80;21109;-68
2022/04/23 04:54:12;;;;;;;14.10;7.17;;;;;;;8.30;87.26;94520.73;1786920;80;21050;-68
2022/04/23 04:56:38;;;;;;;8.57;5.53;;;;;;;8.34;87.15;94516.23;1786774;80;20995;-68
2022/04/23 04:59:05;;;;;;;11.77;7.43;;;;;;;8.41;87.25;94517.37;1787046;80;21109;-68
2022/04/23 05:01:32;;;;;;;13.13;7.67;;;;;;;8.47;87.28;94522.05;1786877;80;21026;-68
2022/04/23 05:03:58;;;;;;;29.97;17.77;;;;;;;8.52;87.45;94524.98;1787199;80;21018;-68
2022/04/23 05:06:25;;;;;;;46.13;28.90;;;;;;;8.60;88.13;94525.62;1787142;80;21546;-68
2022/04/23 05:08:52;;;;;;;49.60;30.10;;;;;;;8.72;88.33;94530.11;1787194;80;21015;-68
2022/04/23 05:11:18;;;;;;;36.73;25.27;;;;;;;8.85;88.34;94531.05;1787044;80;21500;-68
2022/04/23 05:13:44;;;;;;;64.87;37.37;;;;;;;8.99;88.41;94524.52;1787225;80;21018;-68
2022/04/23 05:16:11;;;;;;;48.17;27.90;;;;;;;9.09;87.96;94522.02;1786962;80;21047;-68
2022/04/23 05:18:37;;;;;;;34.13;22.90;;;;;;;9.15;87.83;94527.54;1787031;80;21007;-68
2022/04/23 05:21:04;;;;;;;34.73;24.67;;;;;;;9.24;87.77;94523.32;1787104;80;21082;-68
2022/04/23 05:23:31;;;;;;;36.53;24.43;;;;;;;9.33;87.60;94520.87;1787346;80;21043;-68
2022/04/23 05:25:58;;;;;;;33.67;22.17;;;;;;;9.41;87.67;94509.19;1786905;80;21480;-68
2022/04/23 05:28:24;;;;;;;31.27;20.43;;;;;;;9.51;87.66;94517.66;1787087;80;21038;-68
2022/04/23 05:30:51;;;;;;;23.10;17.00;;;;;;;9.59;87.37;94522.22;1786863;80;21470;-68
2022/04/23 05:33:18;;;;;;;15.07;11.10;;;;;;;9.67;87.33;94516.24;1787245;80;21026;-68
2022/04/23 05:35:44;;;;;;;18.63;10.33;;;;;;;9.80;87.26;94516.70;1787026;80;21018;-68
2022/04/23 05:38:11;;;;;;;10.67;7.07;;;;;;;9.97;87.30;94526.23;1791801;80;21014;-68
2022/04/23 05:40:37;;;;;;;9.07;6.50;;;;;;;10.08;85.80;94526.33;1795096;80;21018;-67
2022/04/23 05:43:05;;;;;;;9.23;5.63;;;;;;;10.16;85.52;94534.40;1795460;80;21033;-68
2022/04/23 05:45:31;;;;;;;6.57;4.10;;;;;;;10.27;85.58;94539.76;1795362;80;21049;-68
2022/04/23 05:47:58;;;;;;;8.03;4.13;;;;;;;10.41;85.11;94533.59;1795424;80;21537;-68
2022/04/23 05:50:26;;;;;;;7.67;3.35;;;;;;;10.47;85.02;94539.95;1794957;80;21026;-68
2022/04/23 05:52:53;;;;;;;5.90;4.23;;;;;;;10.54;84.21;94529.59;1795519;80;20974;-68
2022/04/23 05:55:19;;;;;;;7.95;5.25;;;;;;;10.53;83.73;94538.44;1795425;80;20971;-68
2022/04/23 05:57:47;;;;;;;7.93;4.73;;;;;;;10.65;84.14;94536.27;1795363;80;20931;-68
2022/04/23 06:00:15;;;;;;;6.25;3.77;;;;;;;10.76;84.29;94535.41;1795417;80;21030;-68
2022/04/23 06:02:42;;;;;;;4.83;2.60;;;;;;;10.86;84.01;94541.22;1795463;80;21428;-68
2022/04/23 06:05:10;;;;;;;7.58;3.50;;;;;;;10.88;83.06;94537.60;1795223;80;21027;-68
2022/04/23 06:07:37;;;;;;;5.83;3.90;;;;;;;10.87;83.27;94542.49;1795888;80;21022;-68
2022/04/23 06:10:05;;;;;;;6.10;4.30;;;;;;;10.92;83.37;94541.01;1795351;80;20998;-69
2022/04/23 06:12:34;;;;;;;6.67;3.95;;;;;;;10.91;83.25;94544.55;1795246;80;21449;-68
2022/04/23 06:15:00;;;;;;;6.30;4.10;;;;;;;10.90;82.95;94549.44;1795831;80;21047;-69
2022/04/23 06:17:29;;;;;;;7.47;3.83;;;;;;;10.88;83.22;94544.66;1795469;80;21034;-68
2022/04/23 06:19:56;;;;;;;7.83;4.37;;;;;;;10.87;82.90;94547.77;1795438;80;21018;-68
2022/04/23 06:22:23;;;;;;;8.05;4.75;;;;;;;10.82;82.83;94553.21;1795371;80;21015;-68
2022/04/23 06:24:51;;;;;;;8.38;4.80;;;;;;;10.71;83.09;94549.23;1795215;80;21489;-68
2022/04/23 06:27:19;;;;;;;8.90;5.60;;;;;;;10.67;82.99;94553.77;1795349;80;20963;-68
2022/04/23 06:29:45;;;;;;;12.30;6.53;;;;;;;10.58;83.09;94561.56;1795047;80;21544;-68
2022/04/23 06:32:12;;;;;;;8.53;5.28;;;;;;;10.53;83.26;94555.58;1795249;80;21014;-68
2022/04/23 06:34:39;;;;;;;7.12;4.10;;;;;;;10.48;83.66;94566.75;1795613;80;21046;-68
2022/04/23 06:37:07;;;;;;;5.57;3.43;;;;;;;10.46;82.95;94572.53;1795036;80;21090;-69
2022/04/23 06:39:33;;;;;;;8.78;5.40;;;;;;;10.51;83.00;94573.70;1795120;80;21033;-68
2022/04/23 06:42:00;;;;;;;5.60;3.90;;;;;;;10.55;83.07;94576.15;1795048;80;21026;-68
2022/04/23 06:44:27;;;;;;;7.42;4.80;;;;;;;10.59;82.48;94583.05;1795444;80;20971;-68
2022/04/23 06:46:54;;;;;;;6.60;3.33;;;;;;;10.69;82.92;94583.59;1795306;80;20979;-68
2022/04/23 06:49:23;;;;;;;4.85;2.40;;;;;;;10.81;82.79;94587.59;1795105;80;21090;-68
2022/04/23 06:51:49;;;;;;;3.80;2.20;;;;;;;10.93;81.65;94592.40;1795074;80;21011;-68
2022/04/23 06:54:16;;;;;;;3.10;2.02;;;;;;;11.07;81.36;94577.86;1795201;80;21035;-68
2022/04/23 06:56:42;;;;;;;2.25;1.98;;;;;;;11.27;79.98;94577.98;1795469;80;20982;-69
2022/04/23 06:59:09;;;;;;;4.12;1.50;;;;;;;11.48;78.93;94581.11;1795588;80;21481;-68
2022/04/23 07:01:36;;;;;;;3.83;1.80;;;;;;;11.75;75.79;94589.37;1795122;80;21034;-68
2022/04/23 07:04:03;;;;;;;3.85;1.82;;;;;;;11.98;76.62;94585.84;1795710;80;21014;-68
2022/04/23 07:06:30;;;;;;;4.87;3.17;;;;;;;12.16;77.01;94577.62;1764202;80;21067;-68
2022/04/23 07:08:56;;;;;;;4.50;2.45;;;;;;;12.36;75.86;94581.63;1795629;80;20967;-68
2022/04/23 07:11:23;;;;;;;4.40;1.80;;;;;;;12.49;73.67;94581.97;1795636;80;20959;-68
2022/04/23 07:13:49;;;;;;;3.77;2.33;;;;;;;12.63;72.27;94574.78;1795305;80;21014;-68
2022/04/23 07:16:17;;;;;;;3.40;1.90;;;;;;;12.83;72.09;94578.75;1795323;80;21034;-68
2022/04/23 07:18:44;;;;;;;2.75;2.08;;;;;;;12.85;69.25;94582.19;1795567;80;21006;-68
2022/04/23 07:21:10;;;;;;;4.60;1.95;;;;;;;12.75;68.03;94582.16;1790304;80;21050;-68
2022/04/23 07:26:22;;;;;;;4.42;1.62;;;;;;;12.86;68.22;94579.08;1795108;80;21590;-68
2022/04/23 07:28:49;;;;;;;3.95;2.20;;;;;;;12.96;70.23;94587.86;1795438;80;20994;-69
2022/04/23 07:31:16;;;;;;;4.70;2.72;;;;;;;13.08;67.97;94590.88;1795480;80;21078;-69
2022/04/23 07:39:13;;;;;;;4.85;3.00;;;;;;;12.86;70.41;94598.46;1793962;80;21002;-69
2022/04/23 07:41:39;;;;;;;6.75;2.45;;;;;;;12.99;71.45;94604.08;1795356;80;21077;-69
2022/04/23 07:44:06;;;;;;;5.22;3.92;;;;;;;13.27;70.71;94602.89;1795581;80;20982;-69
2022/04/23 07:46:33;;;;;;;4.72;2.10;;;;;;;13.38;69.18;94600.16;1795511;80;21055;-69
2022/04/23 07:48:59;;;;;;;2.47;1.67;;;;;;;13.45;66.88;94608.67;1795367;80;20986;-69
2022/04/23 07:51:27;;;;;;;2.72;1.75;;;;;;;13.46;64.25;94612.20;1795195;80;21058;-69
2022/04/23 07:53:55;;;;;;;1.95;1.45;;;;;;;13.39;64.24;94629.69;1795484;80;21464;-69
2022/04/23 07:56:22;;;;;;;1.98;1.35;;;;;;;13.33;64.03;94621.14;1795410;80;21030;-69
2022/04/23 07:58:49;;;;;;;1.45;1.32;;;;;;;13.26;61.91;94623.20;1795372;80;20978;-69
2022/04/23 08:01:16;;;;;;;3.47;1.50;;;;;;;13.32;62.53;94630.89;1795614;80;21010;-69
2022/04/23 08:03:42;;;;;;;2.40;1.50;;;;;;;13.39;62.47;94632.34;1795363;80;21499;-69
2022/04/23 08:06:10;;;;;;;1.52;1.10;;;;;;;13.42;62.60;94634.84;1795594;80;20987;-69
2022/04/23 08:08:37;;;;;;;3.70;1.55;;;;;;;13.43;62.71;94637.05;1795446;80;21114;-68
2022/04/23 08:11:04;;;;;;;2.75;1.35;;;;;;;13.40;62.22;94638.02;1795212;80;21544;-68
2022/04/23 08:13:32;;;;;;;1.52;1.17;;;;;;;13.41;61.66;94634.46;1795270;80;21493;-68
2022/04/23 08:16:00;;;;;;;3.08;1.42;;;;;;;13.32;61.27;94631.36;1795522;80;21472;-69
2022/04/23 08:18:29;;;;;;;4.78;1.70;;;;;;;13.36;62.43;94623.20;1795289;80;21002;-68
2022/04/23 08:20:56;;;;;;;3.45;1.85;;;;;;;13.50;62.91;94623.05;1795344;80;21002;-69
2022/04/23 08:23:23;;;;;;;2.70;2.12;;;;;;;13.75;62.66;94626.75;1795432;80;21007;-69
2022/04/23 08:25:51;;;;;;;1.57;1.32;;;;;;;14.05;62.44;94614.70;1795424;80;21003;-69
2022/04/23 08:31:02;;;;;;;4.03;2.62;;;;;;;14.30;58.42;94606.89;1795661;80;21008;-69
2022/04/23 08:33:57;;;;;;;2.35;1.32;;;;;;;14.26;59.32;94611.94;1795165;80;21477;-69
2022/04/23 08:35:57;;;;;;;2.95;1.20;;;;;;;14.26;59.05;94613.27;1790907;80;21026;-69
2022/04/23 08:38:24;;;;;;;2.62;1.35;;;;;;;14.41;58.95;94611.22;1795384;80;21026;-68
2022/04/23 08:40:51;;;;;;;2.27;1.35;;;;;;;14.48;57.78;94614.41;1795385;80;20998;-69
2022/04/23 08:43:18;;;;;;;2.65;1.10;;;;;;;14.51;58.80;94616.91;1795280;80;21477;-69
2022/04/23 08:45:44;;;;;;;2.92;1.17;;;;;;;14.78;58.65;94620.48;1795471;80;20975;-69
2022/04/23 08:48:12;;;;;;;2.47;1.37;;;;;;;15.03;57.63;94626.27;1795402;80;20994;-69
2022/04/23 08:50:41;;;;;;;1.57;1.20;;;;;;;15.03;57.18;94637.36;1795495;80;20983;-69
2022/04/23 08:53:15;;;;;;;2.20;1.40;;;;;;;15.06;57.75;94618.61;1795388;80;21006;-69
2022/04/23 08:55:46;;;;;;;2.05;1.20;;;;;;;15.14;56.58;94619.94;1795763;80;20990;-68
2022/04/23 08:58:14;;;;;;;2.27;1.10;;;;;;;14.97;55.61;94625.27;1795401;80;21010;-68
2022/04/23 09:00:41;;;;;;;2.65;1.40;;;;;;;14.87;56.18;94616.05;1795365;80;20986;-68
2022/04/23 09:03:16;;;;;;;3.65;1.70;;;;;;;14.80;57.00;94606.67;1795456;80;21010;-68
2022/04/23 09:05:44;;;;;;;1.37;1.20;;;;;;;15.00;59.21;94603.84;1795397;80;20999;-69
2022/04/23 09:08:10;;;;;;;4.35;2.40;;;;;;;15.20;56.04;94594.84;1795463;80;20983;-69
2022/04/23 09:10:57;;;;;;;3.30;1.47;;;;;;;15.23;54.70;94603.97;1795595;80;20954;-69
2022/04/23 09:13:31;;;;;;;2.55;0.90;;;;;;;15.30;55.78;94603.20;1795213;80;20990;-69
2022/04/23 09:24:46;;;;;;;1.60;1.10;;;;;;;15.98;52.34;94594.63;1795182;80;21457;-69
2022/04/23 09:27:13;;;;;;;1.80;0.80;;;;;;;16.29;53.13;94595.56;1795516;80;21006;-69
2022/04/23 09:29:42;;;;;;;1.00;0.70;;;;;;;16.63;53.00;94614.91;1795355;80;20994;-69
2022/04/23 09:32:19;;;;;;;2.50;0.80;;;;;;;16.38;50.36;94604.36;1795354;80;21005;-69
2022/04/23 09:34:45;;;;;;;4.35;2.17;;;;;;;16.03;52.13;94611.67;1795352;80;21010;-68
2022/04/23 09:37:12;;;;;;;1.15;1.05;;;;;;;15.81;52.93;94613.31;1795370;80;21009;-69
2022/04/23 09:39:39;;;;;;;1.72;1.15;;;;;;;15.63;52.46;94619.61;1792587;80;21062;-68
2022/04/23 09:42:14;;;;;;;1.80;0.82;;;;;;;15.34;54.13;94623.33;1786613;80;21061;-68
2022/04/23 09:44:42;;;;;;;2.45;1.02;;;;;;;15.17;53.24;94633.98;1787228;80;21007;-69
2022/04/23 09:47:09;;;;;;;2.40;1.17;;;;;;;15.03;53.75;94623.61;1787037;80;21519;-69
2022/04/23 09:49:36;;;;;;;1.50;0.88;;;;;;;15.04;54.26;94635.94;1787070;80;21047;-69
2022/04/23 09:52:09;;;;;;;3.45;1.30;;;;;;;15.28;54.04;94631.64;1787140;80;21496;-69
2022/04/23 09:54:38;;;;;;;1.35;0.95;;;;;;;15.61;52.78;94623.67;1787193;80;20972;-69
2022/04/23 09:57:05;;;;;;;2.33;0.90;;;;;;;15.66;50.70;94618.96;1787042;80;21015;-69
2022/04/23 09:59:32;;;;;;;3.27;1.35;;;;;;;15.65;51.47;94620.36;1787009;80;20963;-69
2022/04/23 10:01:58;;;;;;;1.40;0.90;;;;;;;15.98;50.73;94624.38;1786979;80;21026;-69
2022/04/23 10:04:29;;;;;;;1.77;1.10;;;;;;;16.34;51.35;94612.13;1787109;80;21011;-69
2022/04/23 10:06:56;;;;;;;1.15;0.80;;;;;;;16.96;50.67;94624.58;1787202;80;21026;-69
2022/04/23 10:09:27;;;;;;;1.57;0.80;;;;;;;17.14;48.22;94615.99;1786700;80;21022;-69
2022/04/23 10:12:02;;;;;;;1.57;0.90;;;;;;;17.23;46.14;94614.09;1787347;80;20984;-68
2022/04/23 10:14:38;;;;;;;1.95;1.15;;;;;;;17.43;48.97;94616.39;1785758;80;21071;-68
2022/04/23 10:17:08;;;;;;;1.10;0.65;;;;;;;17.49;45.20;94622.70;1787094;80;21003;-68
2022/04/23 10:19:35;;;;;;;1.72;1.12;;;;;;;17.45;46.61;94613.16;1787039;80;21535;-68
2022/04/23 10:22:28;;;;;;;2.75;1.45;;;;;;;17.41;45.77;94626.33;1787192;80;20992;-68
2022/04/23 10:25:11;;;;;;;1.02;0.80;;;;;;;17.52;45.14;94623.00;1786874;80;21007;-68
2022/04/23 10:27:38;;;;;;;1.72;0.90;;;;;;;16.98;45.87;94636.86;1787107;80;21078;-68
2022/04/23 10:30:07;;;;;;;2.67;1.20;;;;;;;16.55;47.91;94645.13;1787087;80;21501;-69
2022/04/23 10:32:39;;;;;;;1.72;0.82;;;;;;;16.31;50.53;94638.92;1787270;80;21015;-68
2022/04/23 10:35:20;;;;;;;1.20;1.00;;;;;;;16.11;50.60;94649.83;1787437;80;21016;-68
2022/04/23 10:37:50;;;;;;;2.55;1.10;;;;;;;15.59;51.43;94646.34;1764878;80;21023;-69
2022/04/23 10:40:21;;;;;;;1.72;1.20;;;;;;;15.61;53.41;94648.08;1791171;80;21041;-69
2022/04/23 10:43:12;;;;;;;2.27;1.02;;;;;;;15.57;52.08;94654.02;1795463;80;21034;-68
2022/04/23 10:45:40;;;;;;;1.55;1.00;;;;;;;15.35;52.76;94656.97;1795522;80;21453;-68
2022/04/23 10:48:30;;;;;;;3.02;1.30;;;;;;;15.23;52.72;94657.59;1795529;80;21050;-69
2022/04/23 10:51:15;;;;;;;2.60;1.02;;;;;;;15.26;54.02;94662.27;1795657;80;21026;-68
2022/04/23 10:53:46;;;;;;;1.37;1.27;;;;;;;15.15;51.76;94655.34;1795522;80;20987;-68
2022/04/23 10:56:16;;;;;;;2.02;1.55;;;;;;;15.01;55.97;94649.39;1793581;80;21038;-68
2022/04/23 10:58:43;;;;;;;2.72;1.75;;;;;;;15.01;55.97;94649.39;1795302;80;21018;-68
2022/04/23 11:01:22;;;;;;;1.82;1.70;;;;;;;15.12;55.64;94658.16;1795524;80;21406;-68
2022/04/23 11:04:08;;;;;;;2.50;1.87;;;;;;;15.22;55.52;94667.82;1795214;80;21013;-68
2022/04/23 11:12:38;;;;;;;2.67;1.80;;;;;;;15.48;53.24;94676.64;1795455;80;21015;-68
2022/04/23 11:15:16;;;;;;;2.10;1.72;;;;;;;15.43;54.26;94671.18;1795372;80;21018;-68
2022/04/23 11:17:55;;;;;;;2.70;2.12;;;;;;;15.46;55.33;94678.52;1795616;80;21050;-68
2022/04/23 11:20:31;;;;;;;3.35;1.75;;;;;;;15.46;54.88;94683.83;1795496;80;21061;-68
2022/04/23 11:23:00;;;;;;;2.80;2.30;;;;;;;15.37;55.28;94685.62;1795566;80;21485;-68
2022/04/23 11:25:27;;;;;;;2.47;1.80;;;;;;;15.28;55.49;94690.96;1790257;80;20979;-68
2022/04/23 11:28:00;;;;;;;2.05;1.82;;;;;;;15.31;56.51;94680.17;1795212;80;21488;-69
2022/04/23 11:30:30;;;;;;;2.58;1.82;;;;;;;15.40;56.25;94697.45;1794588;80;20971;-68
2022/04/23 11:33:12;;;;;;;2.50;1.50;;;;;;;15.52;54.88;94689.29;1795388;80;21023;-68
2022/04/23 11:35:39;;;;;;;4.45;1.92;;;;;;;15.45;55.19;94698.55;1795748;80;21014;-68
2022/04/23 11:38:19;;;;;;;7.55;6.70;;;;;;;15.38;55.46;94701.98;1795441;80;21492;-68
2022/04/23 11:40:46;;;;;;;6.47;2.05;;;;;;;15.36;54.85;94706.52;1795222;80;21054;-68
2022/04/23 11:43:31;;;;;;;3.40;2.17;;;;;;;15.00;56.04;94721.20;1795640;80;21006;-67
2022/04/23 11:46:04;;;;;;;3.02;2.45;;;;;;;14.66;61.51;94738.77;1795470;80;21033;-68
2022/04/23 11:48:48;;;;;;;4.28;2.12;;;;;;;14.66;61.51;94738.77;1795395;80;21022;-68
2022/04/23 11:51:18;;;;;;;3.33;1.85;;;;;;;14.58;60.83;94744.92;1795519;80;20998;-68
2022/04/23 11:54:00;;;;;;;2.72;2.08;;;;;;;14.45;60.82;94740.16;1795476;80;21079;-68
2022/04/23 11:56:33;;;;;;;2.98;1.55;;;;;;;14.71;62.21;94739.41;1795665;80;21106;-68
2022/04/23 11:59:09;;;;;;;3.33;1.65;;;;;;;14.71;62.21;94739.41;1795301;80;21015;-68
2022/04/23 12:01:41;;;;;;;2.70;1.55;;;;;;;14.77;60.93;94735.63;1795384;80;20979;-68
2022/04/23 12:04:07;;;;;;;2.33;1.55;;;;;;;14.89;60.22;94737.20;1795465;80;21054;-68
2022/04/23 12:06:45;;;;;;;2.85;1.62;;;;;;;14.99;60.54;94741.57;1795385;80;21014;-68
2022/04/23 12:09:13;;;;;;;2.77;1.57;;;;;;;14.99;60.54;94741.57;1794998;80;21086;-68
2022/04/23 12:11:40;;;;;;;2.47;1.32;;;;;;;15.10;61.66;94737.93;1795541;80;21025;-68